createdAt,value
2022-12-20T00:01:26.926Z,12.73
2022-12-20T00:03:56.153Z,14.60
2022-12-20T00:06:23.573Z,10.77
2022-12-20T00:09:01.261Z,17.77
2022-12-20T00:19:11.280Z,13.63
2022-12-20T00:21:38.364Z,11.05
2022-12-20T00:24:09.122Z,7.28
2022-12-20T00:26:36.052Z,15.05
2022-12-20T00:29:02.854Z,10.32
2022-12-20T00:31:31.720Z,11.73
2022-12-20T00:42:06.969Z,8.77
2022-12-20T00:44:33.690Z,14.50
2022-12-20T00:47:00.458Z,14.43
2022-12-20T00:49:27.139Z,8.98
2022-12-20T00:51:53.707Z,7.57
2022-12-20T00:54:20.345Z,13.30
2022-12-20T01:24:54.422Z,13.23
2022-12-20T01:27:21.290Z,7.50
2022-12-20T01:29:48.061Z,13.80
2022-12-20T01:32:14.954Z,11.80
2022-12-20T01:34:41.723Z,14.98
2022-12-20T01:37:08.405Z,8.20
2022-12-20T01:39:35.393Z,10.68
2022-12-20T01:42:02.048Z,8.82
2022-12-20T01:59:55.232Z,12.00
2022-12-20T02:02:22.041Z,11.82
2022-12-20T02:04:48.729Z,12.13
2022-12-20T02:07:20.579Z,11.95
2022-12-20T02:09:48.195Z,15.27
2022-12-20T02:15:57.328Z,13.20
2022-12-20T02:27:31.296Z,9.88
2022-12-20T02:29:58.739Z,15.45
2022-12-20T02:32:46.177Z,16.75
2022-12-20T02:35:18.244Z,11.18
2022-12-20T02:37:56.879Z,11.68
2022-12-20T02:40:29.621Z,11.20
2022-12-20T02:43:00.810Z,15.02
2022-12-20T02:53:09.977Z,14.57
2022-12-20T02:56:00.247Z,11.13
2022-12-20T02:58:36.233Z,12.63
2022-12-20T03:12:26.525Z,11.57
2022-12-20T03:14:53.188Z,8.07
2022-12-20T03:17:19.956Z,9.48
2022-12-20T03:32:47.109Z,8.82
2022-12-20T03:35:14.110Z,7.82
2022-12-20T03:37:41.405Z,7.68
2022-12-20T03:40:08.957Z,8.57
2022-12-20T03:42:36.572Z,7.88
2022-12-20T03:45:03.657Z,11.10
2022-12-20T03:47:30.371Z,8.32
2022-12-20T03:53:47.783Z,7.00
2022-12-20T03:56:14.411Z,6.97
2022-12-20T03:58:41.101Z,9.90
2022-12-20T04:01:22.242Z,8.57
2022-12-20T04:19:03.168Z,5.15
2022-12-20T04:21:33.287Z,11.13
2022-12-20T04:24:02.211Z,7.20
2022-12-20T04:26:29.558Z,8.77
2022-12-20T06:39:18.989Z,9.30
2022-12-20T06:41:45.719Z,7.22
2022-12-20T06:44:12.486Z,7.07
2022-12-20T06:46:39.303Z,11.55
2022-12-20T06:49:06.131Z,10.38
2022-12-20T07:26:19.241Z,6.93
2022-12-20T07:28:46.098Z,10.32
2022-12-20T07:31:13.077Z,8.52
2022-12-20T07:33:40.049Z,10.23
2022-12-20T07:36:10.887Z,7.50
2022-12-20T07:38:38.115Z,7.43
2022-12-20T07:56:21.048Z,9.65
2022-12-20T07:58:50.556Z,10.77
2022-12-20T08:01:17.850Z,7.75
2022-12-20T08:03:49.822Z,10.52
2022-12-20T13:35:32.192Z,10.55
2022-12-20T13:38:37.189Z,12.00
2022-12-20T13:41:29.551Z,12.63
2022-12-20T13:44:41.022Z,16.73
2022-12-20T14:10:17.082Z,15.90
2022-12-20T14:12:46.338Z,8.85
2022-12-20T14:15:27.036Z,13.95
2022-12-20T14:17:54.223Z,12.60
2022-12-20T14:20:25.217Z,15.52
2022-12-20T14:23:04.210Z,16.33
2022-12-20T14:25:38.913Z,16.08
2022-12-20T14:28:20.007Z,12.18
2022-12-20T14:30:50.125Z,12.67
2022-12-20T14:33:30.495Z,16.60
2022-12-20T14:35:57.808Z,13.48
2022-12-20T14:46:20.529Z,22.60
2022-12-20T14:48:47.773Z,14.82
2022-12-20T14:51:21.633Z,13.43
2022-12-20T14:53:50.796Z,15.93
2022-12-20T15:00:33.541Z,15.82
2022-12-20T17:32:24.013Z,28.50
2022-12-20T17:34:51.328Z,20.33
2022-12-20T17:37:18.315Z,22.83
2022-12-20T17:39:45.135Z,19.73
2022-12-20T18:21:51.619Z,24.20
2022-12-20T18:24:19.994Z,27.40
2022-12-20T18:26:47.336Z,19.02
2022-12-20T18:29:14.506Z,24.73
2022-12-20T18:31:41.227Z,24.98
2022-12-20T18:34:07.909Z,15.18
2022-12-20T18:47:57.739Z,19.50
2022-12-20T18:50:24.388Z,60.75
2022-12-20T18:52:51.051Z,45.58
2022-12-20T19:06:51.232Z,31.85
2022-12-20T19:09:17.938Z,37.38
2022-12-20T19:11:44.560Z,33.08
2022-12-20T19:14:12.400Z,38.63
2022-12-20T19:54:01.728Z,34.80
2022-12-20T19:56:31.670Z,31.73
2022-12-20T19:58:58.418Z,36.17
2022-12-20T20:01:27.586Z,45.38
2022-12-20T20:15:28.181Z,42.03
2022-12-20T20:17:55.245Z,43.40
2022-12-20T20:20:22.462Z,35.58
2022-12-20T20:22:49.090Z,50.65
2022-12-20T20:48:04.008Z,51.75
2022-12-20T20:50:32.543Z,46.17
2022-12-20T20:52:59.847Z,51.05
2022-12-20T20:55:26.769Z,58.15
2022-12-20T20:57:53.771Z,58.35
2022-12-20T21:27:17.605Z,61.50
2022-12-20T21:29:44.271Z,61.63
2022-12-20T21:32:11.240Z,70.57
2022-12-20T21:34:38.339Z,65.95
2022-12-20T21:49:36.643Z,70.90
2022-12-20T21:52:03.370Z,78.30
2022-12-20T21:54:30.109Z,69.00
2022-12-20T22:12:11.490Z,71.72
2022-12-20T22:14:38.172Z,66.50
2022-12-20T22:17:04.869Z,75.40
2022-12-20T22:19:31.557Z,66.57
2022-12-20T22:21:58.753Z,67.20
2022-12-20T22:39:49.677Z,61.85
2022-12-20T22:42:16.344Z,60.05
2022-12-20T22:44:43.014Z,55.40
2022-12-20T22:47:09.729Z,51.30
2022-12-20T23:44:59.494Z,58.72
2022-12-20T23:47:26.136Z,70.13
2022-12-20T23:49:52.873Z,73.63
2022-12-20T23:52:19.541Z,67.35
2022-12-20T23:54:46.145Z,61.30
2022-12-20T23:57:13.855Z,70.43
